Time;durP1;ratioP1;P1;durP2;ratioP2;P2;SDS_P1;SDS_P2;PMS_P1;PMS_P2;Temp;Humidity;BMP_temperature;BMP_pressure;BME280_temperature;BME280_humidity;BME280_pressure;Samples;Min_cycle;Max_cycle;Signal;HPM_P1;HPM_P2
2024/03/20 00:01:15;;;;;;;3.15;2.00;;;8.20;99.90;;;;;;4918260;29;20040;-91
2024/03/20 00:03:41;;;;;;;3.33;1.67;;;8.20;99.90;;;;;;4928077;29;20491;-94
2024/03/20 00:06:08;;;;;;;5.18;2.42;;;8.20;99.90;;;;;;4921962;29;20083;-91
2024/03/20 00:08:33;;;;;;;4.57;1.92;;;8.20;99.90;;;;;;4902754;29;20066;-93
2024/03/20 00:11:00;;;;;;;2.60;1.52;;;8.20;99.90;;;;;;4922216;29;20041;-93
2024/03/20 00:13:25;;;;;;;3.22;1.60;;;8.20;99.90;;;;;;4921845;29;20066;-93
2024/03/20 00:15:52;;;;;;;3.13;1.75;;;8.30;99.90;;;;;;4908370;29;20073;-92
2024/03/20 00:18:18;;;;;;;3.03;2.08;;;8.30;99.90;;;;;;4926089;29;20138;-92
2024/03/20 00:20:43;;;;;;;3.95;2.28;;;8.30;99.90;;;;;;4903469;29;20126;-94
2024/03/20 00:23:09;;;;;;;4.85;2.25;;;8.20;99.90;;;;;;4925710;29;20031;-95
2024/03/20 00:25:35;;;;;;;4.35;2.05;;;8.10;99.90;;;;;;4927843;29;20040;-94
2024/03/20 00:28:00;;;;;;;3.38;2.10;;;8.10;99.90;;;;;;4902772;29;20036;-93
2024/03/20 00:30:26;;;;;;;2.78;1.85;;;8.10;99.90;;;;;;4902282;29;20040;-92
2024/03/20 00:32:52;;;;;;;3.83;2.25;;;8.20;99.90;;;;;;4930446;29;20079;-93
2024/03/20 00:35:18;;;;;;;4.07;2.40;;;8.10;99.90;;;;;;4943440;29;20031;-93
2024/03/20 00:37:43;;;;;;;3.30;1.92;;;8.10;99.90;;;;;;4908330;29;20130;-94
2024/03/20 00:40:09;;;;;;;3.65;2.10;;;8.10;99.90;;;;;;4912939;29;20039;-92
2024/03/20 00:42:35;;;;;;;3.17;2.03;;;8.20;99.90;;;;;;4921441;29;20501;-95
2024/03/20 00:45:03;;;;;;;3.97;2.28;;;8.10;99.90;;;;;;4922836;29;20135;-95
2024/03/20 00:47:29;;;;;;;4.00;1.92;;;8.10;99.90;;;;;;4935999;29;20070;-95
2024/03/20 00:49:54;;;;;;;3.35;1.80;;;8.10;99.90;;;;;;4922559;29;20074;-94
2024/03/20 00:52:20;;;;;;;4.18;1.58;;;8.10;99.90;;;;;;4944103;28;20149;-90
2024/03/20 00:54:46;;;;;;;3.05;1.63;;;8.10;99.90;;;;;;4920370;29;20102;-94
2024/03/20 00:57:13;;;;;;;3.20;1.55;;;8.10;99.90;;;;;;4920218;29;20042;-92
2024/03/20 00:59:38;;;;;;;3.72;1.60;;;8.10;99.90;;;;;;4921576;29;20400;-93
2024/03/20 01:02:06;;;;;;;2.60;1.45;;;8.10;99.90;;;;;;4928241;29;20032;-94
2024/03/20 01:04:33;;;;;;;2.88;1.52;;;8.00;99.90;;;;;;4919879;29;20039;-93
2024/03/20 01:06:59;;;;;;;2.90;1.77;;;8.10;99.90;;;;;;4928164;29;20075;-95
2024/03/20 01:09:24;;;;;;;3.58;1.90;;;8.10;99.90;;;;;;4929733;29;20082;-93
2024/03/20 01:11:50;;;;;;;5.43;1.73;;;8.10;99.90;;;;;;4918127;29;20487;-94
2024/03/20 01:14:16;;;;;;;2.05;1.40;;;8.00;99.90;;;;;;4928580;29;20456;-94
2024/03/20 01:16:42;;;;;;;3.22;1.33;;;8.00;99.90;;;;;;4918510;29;20032;-93
2024/03/20 01:19:08;;;;;;;3.58;1.90;;;8.00;99.90;;;;;;4921648;29;20480;-92
2024/03/20 01:21:34;;;;;;;3.55;2.03;;;7.90;99.90;;;;;;4916839;29;20187;-94
2024/03/20 01:23:59;;;;;;;3.22;1.85;;;7.90;99.90;;;;;;4921886;29;20539;-95
2024/03/20 01:26:25;;;;;;;2.60;1.52;;;7.90;99.90;;;;;;4926544;29;20032;-95
2024/03/20 01:28:51;;;;;;;2.55;1.20;;;7.90;99.90;;;;;;4941525;29;20288;-95
2024/03/20 01:31:16;;;;;;;3.83;1.77;;;8.00;99.90;;;;;;4942182;29;20036;-94
2024/03/20 01:33:42;;;;;;;4.57;1.80;;;7.90;99.90;;;;;;4920653;29;20512;-95
2024/03/20 01:36:08;;;;;;;3.63;1.95;;;7.90;99.90;;;;;;4935599;29;20061;-93
2024/03/20 01:38:34;;;;;;;4.60;1.60;;;7.90;99.90;;;;;;4921821;29;20046;-93
2024/03/20 01:40:59;;;;;;;2.80;1.77;;;7.80;99.90;;;;;;4924562;29;20412;-95
2024/03/20 01:43:25;;;;;;;3.53;1.90;;;7.80;99.90;;;;;;4923138;28;20031;-94
2024/03/20 01:45:51;;;;;;;3.55;1.55;;;7.80;99.90;;;;;;4919644;29;20087;-94
2024/03/20 01:48:17;;;;;;;3.25;1.70;;;7.80;99.90;;;;;;4905063;29;20564;-95
2024/03/20 01:50:44;;;;;;;4.20;1.80;;;7.80;99.90;;;;;;4922330;29;20123;-96
2024/03/20 01:53:11;;;;;;;2.80;1.50;;;7.80;99.90;;;;;;4921113;29;20139;-94
2024/03/20 01:55:37;;;;;;;3.30;1.38;;;7.70;99.90;;;;;;4918955;29;20084;-95
2024/03/20 01:58:03;;;;;;;2.75;1.95;;;7.80;99.90;;;;;;4912423;29;20361;-95
2024/03/20 02:00:30;;;;;;;3.08;1.60;;;7.80;99.90;;;;;;4904085;29;20042;-94
2024/03/20 02:03:05;;;;;;;3.95;1.85;;;7.80;99.90;;;;;;4921592;29;20042;-95
2024/03/20 02:05:31;;;;;;;2.70;1.33;;;7.80;99.90;;;;;;4918973;29;20476;-94
2024/03/20 02:07:57;;;;;;;2.75;1.75;;;7.90;99.90;;;;;;4920998;29;20046;-92
2024/03/20 02:10:24;;;;;;;3.40;1.98;;;7.90;99.90;;;;;;4917720;29;20039;-93
2024/03/20 02:13:06;;;;;;;2.63;1.70;;;7.90;99.90;;;;;;4921073;29;20050;-93
2024/03/20 02:15:33;;;;;;;4.38;2.00;;;7.80;99.90;;;;;;4922005;29;20039;-94
2024/03/20 02:18:00;;;;;;;5.32;2.63;;;7.80;99.90;;;;;;4915524;29;20048;-94
2024/03/20 02:20:25;;;;;;;3.22;2.15;;;7.80;99.90;;;;;;4921448;28;20043;-94
2024/03/20 02:22:51;;;;;;;2.85;1.52;;;7.70;99.90;;;;;;4919102;29;20163;-96
2024/03/20 02:25:17;;;;;;;3.47;2.38;;;7.80;99.90;;;;;;4912514;29;20552;-96
2024/03/20 02:27:43;;;;;;;3.50;1.67;;;7.80;99.90;;;;;;4933764;29;20493;-96
2024/03/20 02:30:12;;;;;;;2.88;1.20;;;7.70;99.90;;;;;;4913926;29;20028;-96
2024/03/20 02:32:39;;;;;;;2.63;1.77;;;7.70;99.90;;;;;;4917723;29;20047;-94
2024/03/20 02:35:05;;;;;;;2.40;1.48;;;7.80;99.90;;;;;;4918000;29;20280;-90
2024/03/20 02:37:31;;;;;;;4.47;1.88;;;7.80;99.90;;;;;;4921018;29;20040;-94
2024/03/20 02:39:57;;;;;;;3.35;1.88;;;7.70;99.90;;;;;;4902253;29;20031;-94
2024/03/20 02:42:23;;;;;;;3.55;2.35;;;7.60;99.90;;;;;;4916721;29;20043;-95
2024/03/20 02:44:49;;;;;;;3.20;1.75;;;7.60;99.90;;;;;;4931328;29;20048;-93
2024/03/20 02:47:15;;;;;;;3.03;1.73;;;7.60;99.90;;;;;;4919229;29;20047;-94
2024/03/20 02:49:41;;;;;;;3.65;1.70;;;7.50;99.90;;;;;;4920621;29;20121;-95
2024/03/20 02:52:07;;;;;;;2.75;2.17;;;7.50;99.90;;;;;;4908696;29;20083;-95
2024/03/20 02:54:32;;;;;;;3.55;2.22;;;7.40;99.90;;;;;;4904764;29;20031;-94
2024/03/20 02:56:58;;;;;;;3.92;2.03;;;7.40;99.90;;;;;;4900538;29;20045;-96
2024/03/20 02:59:24;;;;;;;2.83;1.70;;;7.40;99.90;;;;;;4904129;29;20737;-94
2024/03/20 03:01:49;;;;;;;2.80;1.85;;;7.50;99.90;;;;;;4918408;29;20035;-95
2024/03/20 03:04:15;;;;;;;3.47;2.38;;;7.50;99.90;;;;;;4913194;29;20127;-90
2024/03/20 03:06:41;;;;;;;4.47;1.98;;;7.40;99.90;;;;;;4920045;29;20032;-95
2024/03/20 03:09:08;;;;;;;2.97;2.17;;;7.40;99.90;;;;;;4904308;29;20058;-96
2024/03/20 03:11:36;;;;;;;3.55;1.90;;;7.40;99.90;;;;;;4920151;29;20040;-96
2024/03/20 03:14:03;;;;;;;2.78;1.63;;;7.40;99.90;;;;;;4916152;29;20043;-95
2024/03/20 03:16:29;;;;;;;3.63;1.70;;;7.30;99.90;;;;;;4917947;29;20093;-93
2024/03/20 03:18:54;;;;;;;2.22;1.40;;;7.30;99.90;;;;;;4899516;29;20044;-94
2024/03/20 03:21:20;;;;;;;2.70;1.60;;;7.30;99.90;;;;;;4920000;29;20036;-95
2024/03/20 03:23:46;;;;;;;3.08;1.40;;;7.30;99.90;;;;;;4903163;29;20496;-94
2024/03/20 03:26:12;;;;;;;4.13;2.28;;;7.40;99.90;;;;;;4903799;29;20425;-93
2024/03/20 03:28:38;;;;;;;2.28;1.65;;;7.30;99.90;;;;;;4917299;29;20044;-95
2024/03/20 03:31:03;;;;;;;2.55;1.63;;;7.40;99.90;;;;;;4917981;29;20043;-95
2024/03/20 03:33:29;;;;;;;2.70;1.48;;;7.30;99.90;;;;;;4900923;29;20082;-95
2024/03/20 03:36:08;;;;;;;2.63;1.75;;;7.30;99.90;;;;;;4905664;29;20663;-95
2024/03/20 03:38:35;;;;;;;3.15;1.63;;;7.40;99.90;;;;;;4936885;29;20313;-95
2024/03/20 03:41:04;;;;;;;3.10;1.60;;;7.40;99.90;;;;;;4913135;29;20035;-95
2024/03/20 03:43:31;;;;;;;2.70;1.60;;;7.40;99.90;;;;;;4938977;28;20038;-93
2024/03/20 03:45:57;;;;;;;3.97;1.35;;;7.50;99.90;;;;;;4937615;28;20465;-93
2024/03/20 03:48:24;;;;;;;2.90;1.88;;;7.50;99.90;;;;;;4952133;28;20074;-95
2024/03/20 03:50:53;;;;;;;3.60;1.48;;;7.50;99.90;;;;;;4957983;28;20125;-95
2024/03/20 03:53:19;;;;;;;4.05;1.60;;;7.60;99.90;;;;;;4933200;28;20046;-94
2024/03/20 03:55:45;;;;;;;3.53;1.67;;;7.60;99.90;;;;;;4935017;28;20035;-96
2024/03/20 03:58:11;;;;;;;3.75;1.67;;;7.50;99.90;;;;;;4945095;28;20034;-94
2024/03/20 04:00:37;;;;;;;2.78;1.80;;;7.50;99.90;;;;;;4960472;28;20087;-95
2024/03/20 04:03:03;;;;;;;3.33;1.92;;;7.50;99.90;;;;;;4941527;28;20039;-96
2024/03/20 04:05:33;;;;;;;3.10;1.73;;;7.50;99.90;;;;;;4943551;28;20035;-95
2024/03/20 04:07:59;;;;;;;;;;;7.50;99.90;;;;;;4941146;28;20173;-95
2024/03/20 04:10:25;;;;;;;3.15;1.13;;;7.70;99.90;;;;;;4927309;28;19917;-95
2024/03/20 04:12:51;;;;;;;3.00;1.35;;;7.60;99.90;;;;;;4940231;28;20054;-95
2024/03/20 04:15:17;;;;;;;2.80;1.23;;;7.60;99.90;;;;;;4925358;28;20034;-95
2024/03/20 04:17:43;;;;;;;3.17;1.52;;;7.40;99.90;;;;;;4943026;28;20051;-94
2024/03/20 04:20:13;;;;;;;3.25;1.65;;;7.40;99.90;;;;;;4934610;29;20070;-95
2024/03/20 04:22:39;;;;;;;3.67;2.00;;;7.50;99.90;;;;;;4922008;28;20054;-95
2024/03/20 04:25:05;;;;;;;11.77;1.77;;;7.50;99.90;;;;;;4942769;29;20446;-94
2024/03/20 04:27:31;;;;;;;3.97;1.92;;;7.40;99.90;;;;;;4945136;29;20047;-95
2024/03/20 04:29:57;;;;;;;2.65;1.98;;;7.40;99.90;;;;;;4927271;28;20038;-94
2024/03/20 04:32:23;;;;;;;4.70;1.60;;;7.40;99.90;;;;;;4939955;28;20050;-94
2024/03/20 04:34:48;;;;;;;3.83;1.95;;;7.40;99.90;;;;;;4939053;28;20032;-94
2024/03/20 04:37:14;;;;;;;3.33;2.33;;;7.40;99.90;;;;;;4940550;28;20039;-95
2024/03/20 04:39:40;;;;;;;3.38;2.00;;;7.50;99.90;;;;;;4943931;28;20039;-93
2024/03/20 04:42:08;;;;;;;2.95;1.83;;;7.50;99.90;;;;;;4941664;28;20042;-93
2024/03/20 04:44:34;;;;;;;3.15;1.77;;;7.40;99.90;;;;;;4927812;29;20460;-94
2024/03/20 04:46:59;;;;;;;3.03;1.88;;;7.40;99.90;;;;;;4925886;29;20176;-93
2024/03/20 04:49:25;;;;;;;2.47;1.40;;;7.40;99.90;;;;;;4924632;29;20259;-94
2024/03/20 04:51:52;;;;;;;2.80;1.77;;;7.50;99.90;;;;;;4915975;29;20047;-94
2024/03/20 04:54:18;;;;;;;3.47;1.55;;;7.50;99.90;;;;;;4917547;28;20039;-93
2024/03/20 04:56:43;;;;;;;3.65;1.90;;;7.50;99.90;;;;;;4939350;29;20038;-93
2024/03/20 04:59:09;;;;;;;2.88;1.77;;;7.50;99.90;;;;;;4917512;29;20484;-94
2024/03/20 05:01:35;;;;;;;3.03;1.80;;;7.50;99.90;;;;;;4912622;29;20047;-93
2024/03/20 05:04:01;;;;;;;3.40;1.60;;;7.40;99.90;;;;;;4915659;29;20583;-94
2024/03/20 05:06:27;;;;;;;2.97;1.73;;;7.50;99.90;;;;;;4913149;29;20128;-92
2024/03/20 05:08:53;;;;;;;2.30;1.48;;;7.50;99.90;;;;;;4912637;29;20043;-92
2024/03/20 05:11:20;;;;;;;2.97;1.40;;;7.50;99.90;;;;;;4915569;29;20052;-93
2024/03/20 05:13:46;;;;;;;2.45;1.30;;;7.50;99.90;;;;;;4933924;29;20570;-93
2024/03/20 05:16:12;;;;;;;2.60;1.83;;;7.60;99.90;;;;;;4907162;29;20139;-93
2024/03/20 05:18:37;;;;;;;3.55;1.77;;;7.50;99.90;;;;;;4935527;29;20037;-93
2024/03/20 05:21:03;;;;;;;4.72;1.45;;;7.40;99.90;;;;;;4921718;29;20432;-92
2024/03/20 05:23:29;;;;;;;4.78;1.85;;;7.50;99.90;;;;;;4921087;29;20044;-93
2024/03/20 05:25:56;;;;;;;3.30;1.45;;;7.50;99.90;;;;;;4906186;29;20494;-91
2024/03/20 05:28:22;;;;;;;2.97;1.70;;;7.40;99.90;;;;;;4911451;29;20059;-92
2024/03/20 05:30:51;;;;;;;3.53;1.85;;;7.40;99.90;;;;;;4914913;29;20095;-91
2024/03/20 05:33:17;;;;;;;4.05;2.17;;;7.50;99.90;;;;;;4916310;29;20519;-93
2024/03/20 05:35:43;;;;;;;4.55;1.95;;;7.50;99.90;;;;;;4907428;29;20040;-93
2024/03/20 05:38:09;;;;;;;2.80;1.65;;;7.50;99.90;;;;;;4912556;29;20042;-93
2024/03/20 05:40:35;;;;;;;3.53;1.63;;;7.40;99.90;;;;;;4914486;29;20062;-93
2024/03/20 05:43:01;;;;;;;2.58;1.67;;;7.40;99.90;;;;;;4919829;29;20165;-93
2024/03/20 05:45:27;;;;;;;2.78;1.85;;;7.50;99.90;;;;;;4938403;28;20050;-92
2024/03/20 05:47:53;;;;;;;3.60;1.55;;;7.60;99.90;;;;;;4938781;28;20512;-91
2024/03/20 05:50:19;;;;;;;2.45;1.38;;;7.60;99.90;;;;;;4927541;28;20066;-92
2024/03/20 05:52:44;;;;;;;4.03;1.90;;;7.50;99.90;;;;;;4962399;28;20051;-92
2024/03/20 05:55:14;;;;;;;3.22;1.60;;;7.40;99.90;;;;;;4932752;28;20467;-91
2024/03/20 05:57:40;;;;;;;2.67;1.37;;;7.40;99.90;;;;;;4941194;28;20093;-91
2024/03/20 06:00:14;;;;;;;3.30;1.60;;;7.40;99.90;;;;;;4922752;28;20082;-93
2024/03/20 06:02:41;;;;;;;2.80;1.40;;;7.60;99.90;;;;;;4939386;28;20036;-94
2024/03/20 06:05:07;;;;;;;3.72;1.77;;;7.70;99.90;;;;;;4937268;28;20164;-91
2024/03/20 06:07:33;;;;;;;3.75;1.70;;;7.80;99.90;;;;;;4928318;28;20042;-92
2024/03/20 06:09:59;;;;;;;3.63;1.75;;;7.70;99.90;;;;;;4938062;28;20662;-91
2024/03/20 06:12:25;;;;;;;2.83;1.58;;;7.80;99.90;;;;;;4937311;28;20511;-92
2024/03/20 06:14:53;;;;;;;3.95;2.10;;;7.80;99.90;;;;;;4959097;28;20054;-92
2024/03/20 06:17:18;;;;;;;3.42;1.58;;;7.90;99.90;;;;;;4926940;28;20043;-91
2024/03/20 06:19:44;;;;;;;3.55;2.00;;;8.00;99.90;;;;;;4927985;28;20066;-91
2024/03/20 06:22:10;;;;;;;3.03;1.88;;;8.10;99.90;;;;;;4937292;28;20062;-92
2024/03/20 06:24:39;;;;;;;5.95;2.13;;;8.20;99.90;;;;;;4939494;29;20050;-92
2024/03/20 06:27:05;;;;;;;4.35;1.60;;;8.30;99.90;;;;;;4946949;28;20163;-91
2024/03/20 06:29:32;;;;;;;3.47;1.88;;;8.30;99.90;;;;;;4930758;28;20051;-91
2024/03/20 06:31:58;;;;;;;5.07;2.53;;;8.30;99.90;;;;;;4929127;28;20051;-92
2024/03/20 06:34:25;;;;;;;4.60;1.73;;;8.30;99.90;;;;;;4956403;28;20066;-91
2024/03/20 06:36:50;;;;;;;2.78;1.67;;;8.50;99.90;;;;;;4954518;28;20031;-92
2024/03/20 06:39:16;;;;;;;2.90;1.60;;;8.50;99.90;;;;;;4931884;28;20089;-92
2024/03/20 06:41:46;;;;;;;3.00;1.63;;;8.60;99.90;;;;;;4928354;28;20070;-90
2024/03/20 06:44:14;;;;;;;3.55;1.95;;;8.80;99.90;;;;;;4930125;29;20613;-91
2024/03/20 06:46:40;;;;;;;3.25;1.80;;;8.90;99.90;;;;;;4940020;28;20399;-90
2024/03/20 06:49:09;;;;;;;3.75;2.17;;;8.90;99.90;;;;;;4938318;28;20136;-91
2024/03/20 06:51:36;;;;;;;3.90;1.88;;;8.90;99.90;;;;;;4930083;28;20031;-91
2024/03/20 06:54:16;;;;;;;4.13;1.92;;;9.10;99.90;;;;;;4927844;28;20110;-91
2024/03/20 06:56:48;;;;;;;2.90;2.00;;;9.20;99.90;;;;;;4938875;29;20333;-92
2024/03/20 06:59:17;;;;;;;3.00;1.40;;;9.20;99.90;;;;;;4937006;28;20035;-91
2024/03/20 07:01:42;;;;;;;3.10;1.70;;;9.30;99.90;;;;;;4937270;28;20039;-93
2024/03/20 07:04:08;;;;;;;3.70;1.52;;;9.50;99.90;;;;;;4932484;28;20043;-91
2024/03/20 07:06:34;;;;;;;3.95;1.52;;;9.50;99.90;;;;;;4940712;28;20039;-92
2024/03/20 07:08:59;;;;;;;3.10;1.55;;;9.40;99.90;;;;;;4944704;28;20039;-91
2024/03/20 07:11:25;;;;;;;3.65;1.77;;;9.60;99.90;;;;;;4920383;28;20066;-92
2024/03/20 07:13:54;;;;;;;4.63;2.10;;;9.60;99.90;;;;;;4928388;29;20399;-92
2024/03/20 07:16:20;;;;;;;3.75;1.60;;;9.70;99.90;;;;;;4952909;28;20043;-91
2024/03/20 07:18:46;;;;;;;4.25;2.58;;;9.80;99.90;;;;;;4944049;28;20039;-91
2024/03/20 07:21:12;;;;;;;4.07;2.45;;;9.80;99.90;;;;;;4926698;29;20043;-91
2024/03/20 07:23:37;;;;;;;3.55;2.05;;;9.90;99.90;;;;;;4942653;28;20034;-92
2024/03/20 07:26:03;;;;;;;3.53;2.15;;;9.90;99.90;;;;;;4934960;28;20392;-92
2024/03/20 07:28:29;;;;;;;4.90;1.88;;;10.00;99.90;;;;;;4928622;28;20031;-92
2024/03/20 07:30:55;;;;;;;5.07;1.80;;;10.00;99.90;;;;;;4934309;29;20065;-92
2024/03/20 07:33:21;;;;;;;5.35;2.38;;;10.10;99.90;;;;;;4943150;28;20498;-92
2024/03/20 07:35:47;;;;;;;3.35;1.92;;;10.20;99.90;;;;;;4948417;28;20038;-90
2024/03/20 07:38:13;;;;;;;4.05;2.30;;;10.30;99.90;;;;;;4926564;28;20048;-92
2024/03/20 07:40:42;;;;;;;3.95;2.10;;;10.40;99.90;;;;;;4939536;28;20447;-92
2024/03/20 07:43:08;;;;;;;3.28;2.40;;;10.50;99.90;;;;;;4927297;28;20168;-91
2024/03/20 07:45:34;;;;;;;4.10;2.10;;;10.60;99.90;;;;;;4927796;29;20448;-91
2024/03/20 07:48:00;;;;;;;4.95;3.03;;;10.70;99.90;;;;;;4928494;28;20047;-92
2024/03/20 07:50:26;;;;;;;4.55;2.72;;;10.90;99.90;;;;;;4933132;28;20042;-92
2024/03/20 07:52:54;;;;;;;3.90;2.70;;;10.90;99.90;;;;;;4927679;29;20501;-91
2024/03/20 07:55:21;;;;;;;4.93;2.90;;;11.00;99.90;;;;;;4936708;28;20463;-92
2024/03/20 07:57:47;;;;;;;5.70;2.72;;;11.10;99.90;;;;;;4956532;28;20051;-91
2024/03/20 08:00:16;;;;;;;5.07;3.00;;;11.20;99.90;;;;;;4936953;28;20491;-92
2024/03/20 08:02:45;;;;;;;3.40;2.63;;;11.30;99.90;;;;;;4917798;28;20515;-92
2024/03/20 08:05:12;;;;;;;5.70;3.22;;;11.40;99.90;;;;;;4935197;28;20031;-92
2024/03/20 08:07:39;;;;;;;3.25;2.50;;;11.40;99.90;;;;;;4933977;28;20051;-92
2024/03/20 08:10:07;;;;;;;4.75;3.17;;;11.50;99.90;;;;;;4935420;29;20070;-92
2024/03/20 08:12:33;;;;;;;4.45;3.10;;;11.50;99.90;;;;;;4929728;28;20051;-91
2024/03/20 08:14:59;;;;;;;6.65;3.10;;;11.60;99.90;;;;;;4926435;28;20186;-92
2024/03/20 08:17:25;;;;;;;5.40;3.95;;;11.60;99.90;;;;;;4920886;28;20051;-90
2024/03/20 08:19:51;;;;;;;4.65;3.45;;;11.90;99.90;;;;;;4928217;28;20036;-93
2024/03/20 08:22:17;;;;;;;5.03;3.00;;;11.90;99.90;;;;;;4941214;28;20027;-92
2024/03/20 08:24:43;;;;;;;4.72;3.50;;;12.10;99.90;;;;;;4929680;28;20399;-92
2024/03/20 08:27:09;;;;;;;4.65;3.05;;;12.30;99.90;;;;;;4940982;28;20149;-94
2024/03/20 08:29:35;;;;;;;6.03;3.70;;;12.30;99.90;;;;;;4943026;28;20039;-93
2024/03/20 08:32:01;;;;;;;5.50;3.60;;;12.40;99.90;;;;;;4935551;28;20057;-94
2024/03/20 08:34:27;;;;;;;6.15;5.20;;;12.30;99.90;;;;;;4942070;28;20133;-90
2024/03/20 08:36:53;;;;;;;5.95;4.93;;;12.40;99.90;;;;;;4930394;29;20032;-93
2024/03/20 08:39:18;;;;;;;6.85;4.97;;;12.50;99.90;;;;;;4938032;28;20045;-94
2024/03/20 08:41:44;;;;;;;6.05;4.90;;;12.80;99.90;;;;;;4937754;28;20702;-92
2024/03/20 08:44:10;;;;;;;8.27;5.97;;;12.80;99.90;;;;;;4937466;28;20583;-92
2024/03/20 08:46:41;;;;;;;8.13;5.57;;;12.80;99.90;;;;;;4942493;28;20039;-90
2024/03/20 08:49:08;;;;;;;6.57;4.90;;;13.10;99.90;;;;;;4950572;28;20063;-92
2024/03/20 08:51:34;;;;;;;7.60;6.00;;;13.20;99.90;;;;;;4934367;28;20046;-91
2024/03/20 08:53:59;;;;;;;6.47;4.95;;;13.20;99.90;;;;;;4960330;28;20047;-91
2024/03/20 08:56:25;;;;;;;6.97;5.65;;;13.40;99.90;;;;;;4936405;28;20081;-94
2024/03/20 08:58:51;;;;;;;7.85;5.68;;;13.40;99.90;;;;;;4959552;28;20570;-94
2024/03/20 09:01:17;;;;;;;8.23;6.00;;;13.40;99.90;;;;;;4930084;29;20032;-93
2024/03/20 09:03:43;;;;;;;7.60;5.53;;;13.30;99.90;;;;;;4934359;28;20129;-93
2024/03/20 09:06:09;;;;;;;8.93;6.75;;;13.40;99.90;;;;;;4935067;28;20117;-93
2024/03/20 09:08:35;;;;;;;9.77;6.57;;;13.40;99.90;;;;;;4940940;28;20094;-92
2024/03/20 09:11:01;;;;;;;8.55;6.35;;;13.70;99.90;;;;;;4960044;28;20039;-91
2024/03/20 09:13:29;;;;;;;7.35;5.45;;;13.90;99.90;;;;;;4948505;29;20075;-88
2024/03/20 09:15:55;;;;;;;7.45;5.13;;;14.10;99.90;;;;;;4941703;28;20072;-90
2024/03/20 09:18:21;;;;;;;9.00;7.03;;;14.30;99.90;;;;;;4930285;28;20141;-92
2024/03/20 09:20:46;;;;;;;7.20;5.35;;;14.10;99.90;;;;;;4914038;28;20158;-91
2024/03/20 09:23:12;;;;;;;12.07;9.77;;;14.20;99.90;;;;;;4945219;28;20035;-92
2024/03/20 09:25:38;;;;;;;11.10;8.25;;;14.00;99.90;;;;;;4933466;28;20539;-91
2024/03/20 09:28:04;;;;;;;11.18;6.88;;;14.30;99.90;;;;;;4923339;28;20035;-92
2024/03/20 09:30:29;;;;;;;10.35;6.75;;;14.60;99.90;;;;;;4923305;28;20650;-92
2024/03/20 09:32:56;;;;;;;12.65;9.50;;;14.60;99.90;;;;;;4920719;28;20076;-90
2024/03/20 09:35:22;;;;;;;11.52;7.88;;;14.70;99.90;;;;;;4953092;28;20035;-88
2024/03/20 09:37:48;;;;;;;10.93;7.25;;;14.90;99.90;;;;;;4938048;28;20035;-91
2024/03/20 09:40:22;;;;;;;7.35;6.30;;;15.10;99.90;;;;;;4923830;28;20392;-88
2024/03/20 09:42:50;;;;;;;13.27;8.27;;;15.20;99.90;;;;;;4921612;28;20066;-92
2024/03/20 09:45:15;;;;;;;11.98;7.57;;;15.10;99.90;;;;;;4953991;28;20082;-90
2024/03/20 09:47:43;;;;;;;9.10;7.25;;;15.00;99.90;;;;;;4919535;28;20118;-92
2024/03/20 09:50:15;;;;;;;10.20;8.32;;;15.00;99.90;;;;;;4940414;28;20047;-92
2024/03/20 09:52:40;;;;;;;9.48;7.90;;;15.20;99.90;;;;;;4932607;28;20491;-91
2024/03/20 09:55:10;;;;;;;10.65;7.38;;;15.30;99.90;;;;;;4931299;28;20039;-91
2024/03/20 09:57:36;;;;;;;11.82;8.65;;;15.50;99.90;;;;;;4937911;28;20109;-90
2024/03/20 10:00:06;;;;;;;9.85;7.97;;;15.50;99.90;;;;;;4958420;28;20113;-91
2024/03/20 10:02:32;;;;;;;9.45;7.20;;;15.70;99.90;;;;;;4928129;28;20146;-90
2024/03/20 10:04:58;;;;;;;11.80;9.70;;;15.80;99.90;;;;;;4929693;28;20043;-91
2024/03/20 10:07:24;;;;;;;13.88;7.50;;;15.70;99.90;;;;;;4925912;28;20071;-91
2024/03/20 10:09:49;;;;;;;8.15;6.72;;;16.00;99.90;;;;;;4933086;28;20043;-88
2024/03/20 10:12:17;;;;;;;10.20;7.20;;;15.90;99.90;;;;;;4923200;28;20050;-91
2024/03/20 10:14:43;;;;;;;7.97;6.07;;;15.90;99.90;;;;;;4931227;28;20043;-91
2024/03/20 10:17:17;;;;;;;12.77;10.20;;;16.10;99.90;;;;;;4926995;28;20398;-91
2024/03/20 10:19:46;;;;;;;9.57;8.43;;;16.10;99.90;;;;;;4921483;28;20069;-92
2024/03/20 10:22:13;;;;;;;8.40;6.47;;;16.10;99.90;;;;;;4953902;28;20035;-91
2024/03/20 10:24:41;;;;;;;11.00;7.72;;;16.30;99.90;;;;;;4933130;28;20035;-90
2024/03/20 10:27:12;;;;;;;9.07;6.93;;;16.20;99.90;;;;;;4956788;28;20066;-90
2024/03/20 10:29:39;;;;;;;8.35;6.18;;;16.50;99.90;;;;;;4920246;28;20399;-91
2024/03/20 10:32:06;;;;;;;7.50;5.20;;;16.70;99.90;;;;;;4914232;28;20090;-91
2024/03/20 10:34:33;;;;;;;10.90;8.57;;;16.60;99.90;;;;;;4946569;28;20106;-91
2024/03/20 10:36:59;;;;;;;8.93;7.15;;;16.40;99.90;;;;;;4935571;28;20051;-90
2024/03/20 10:39:27;;;;;;;9.27;5.90;;;16.50;99.90;;;;;;4952348;28;20165;-90
2024/03/20 10:41:56;;;;;;;7.32;5.45;;;16.80;99.90;;;;;;4930515;28;20031;-90
2024/03/20 10:44:23;;;;;;;7.72;6.00;;;16.70;99.90;;;;;;4919051;28;20078;-90
2024/03/20 10:46:50;;;;;;;8.23;5.80;;;16.70;99.90;;;;;;4901320;29;20038;-90
2024/03/20 10:49:21;;;;;;;5.93;4.82;;;16.90;99.90;;;;;;4902809;29;20074;-90
2024/03/20 10:51:49;;;;;;;5.03;4.40;;;17.00;99.90;;;;;;4918794;29;20039;-90
2024/03/20 10:54:14;;;;;;;6.68;4.88;;;17.10;99.90;;;;;;4902443;29;20062;-89
2024/03/20 10:56:52;;;;;;;8.73;5.72;;;16.90;99.90;;;;;;4908422;29;20123;-88
2024/03/20 10:59:22;;;;;;;7.93;4.53;;;16.70;99.90;;;;;;4910794;29;20035;-89
2024/03/20 11:02:01;;;;;;;8.00;4.85;;;16.90;99.90;;;;;;4895028;29;20032;-90
2024/03/20 11:04:33;;;;;;;6.35;3.47;;;17.10;99.90;;;;;;4913821;29;20070;-88
2024/03/20 11:06:59;;;;;;;6.38;4.38;;;17.10;99.90;;;;;;4914729;29;20126;-90
2024/03/20 11:09:26;;;;;;;5.78;3.58;;;17.00;99.90;;;;;;4899494;29;20131;-90
2024/03/20 11:11:55;;;;;;;6.60;4.40;;;17.30;99.90;;;;;;4912649;29;20043;-90
2024/03/20 11:14:25;;;;;;;6.70;4.18;;;17.30;99.90;;;;;;4902955;29;20058;-91
2024/03/20 11:16:53;;;;;;;7.82;4.70;;;17.40;99.90;;;;;;4929983;29;20107;-89
2024/03/20 11:19:20;;;;;;;6.85;5.72;;;17.60;99.90;;;;;;4894171;29;20072;-90
2024/03/20 11:21:51;;;;;;;6.80;5.00;;;17.40;99.90;;;;;;4901670;29;20528;-90
2024/03/20 11:24:19;;;;;;;8.57;7.43;;;17.40;99.90;;;;;;4931851;29;20459;-89
2024/03/20 11:26:45;;;;;;;13.93;9.45;;;17.30;99.90;;;;;;4915097;29;20035;-90
2024/03/20 11:29:11;;;;;;;5.22;3.90;;;17.10;99.90;;;;;;4901947;29;20067;-90
2024/03/20 11:31:38;;;;;;;4.40;2.78;;;17.50;99.90;;;;;;4917859;29;20046;-89
2024/03/20 11:34:07;;;;;;;7.82;5.60;;;17.70;99.90;;;;;;4893458;29;20051;-90
2024/03/20 11:36:33;;;;;;;9.27;6.22;;;17.40;99.90;;;;;;4907812;29;20063;-90
2024/03/20 11:39:00;;;;;;;4.82;2.92;;;17.40;99.90;;;;;;4918013;29;20067;-89
2024/03/20 11:41:27;;;;;;;6.50;3.55;;;17.90;99.90;;;;;;4895476;29;20089;-90
2024/03/20 11:43:55;;;;;;;4.32;2.72;;;17.80;99.90;;;;;;4900778;28;20039;-91
2024/03/20 11:46:21;;;;;;;3.53;3.20;;;17.90;99.90;;;;;;4932720;28;20151;-90
2024/03/20 11:48:48;;;;;;;3.80;2.38;;;18.00;99.90;;;;;;4931301;28;20260;-89
2024/03/20 11:51:19;;;;;;;3.83;3.00;;;18.10;99.90;;;;;;4951863;28;20049;-90
2024/03/20 11:53:47;;;;;;;3.45;3.10;;;17.80;99.90;;;;;;4922548;28;20419;-90
2024/03/20 11:56:13;;;;;;;6.38;3.95;;;17.90;99.90;;;;;;4949791;28;20082;-90
2024/03/20 11:58:38;;;;;;;7.90;4.25;;;17.90;99.90;;;;;;4923756;28;20035;-89
2024/03/20 12:01:08;;;;;;;6.20;3.58;;;17.80;99.90;;;;;;4938176;28;20027;-90
2024/03/20 12:03:35;;;;;;;5.20;2.47;;;18.10;99.90;;;;;;4939785;28;20043;-90
2024/03/20 12:06:11;;;;;;;5.38;2.67;;;18.00;99.90;;;;;;4919209;28;20035;-90
2024/03/20 12:08:38;;;;;;;4.72;3.20;;;18.20;99.90;;;;;;4934866;28;20542;-91
2024/03/20 12:11:14;;;;;;;3.03;2.40;;;18.10;99.90;;;;;;4927876;28;20062;-90
2024/03/20 12:13:39;;;;;;;5.60;3.88;;;18.20;99.90;;;;;;4932099;28;20055;-90
2024/03/20 12:16:07;;;;;;;6.68;3.83;;;18.00;99.90;;;;;;4945186;28;20035;-88
2024/03/20 12:18:34;;;;;;;4.10;2.70;;;17.90;99.90;;;;;;4945204;28;20038;-90
2024/03/20 12:21:00;;;;;;;3.95;2.97;;;18.10;99.90;;;;;;4916479;28;20246;-89
2024/03/20 12:23:26;;;;;;;8.00;6.20;;;18.30;99.90;;;;;;4939105;28;20167;-89
2024/03/20 12:25:52;;;;;;;7.50;5.85;;;18.10;99.90;;;;;;4924111;28;20041;-90
2024/03/20 12:28:17;;;;;;;9.27;5.70;;;18.10;99.90;;;;;;4943071;28;20454;-89
2024/03/20 12:30:43;;;;;;;5.22;4.03;;;18.10;99.90;;;;;;4955552;28;20039;-90
2024/03/20 12:33:09;;;;;;;5.13;4.25;;;18.00;99.90;;;;;;4929221;28;20557;-90
2024/03/20 12:35:35;;;;;;;6.50;4.88;;;18.10;99.90;;;;;;4941868;28;20134;-90
2024/03/20 12:38:01;;;;;;;6.20;3.80;;;18.20;99.90;;;;;;4932849;28;20126;-89
2024/03/20 12:40:26;;;;;;;5.32;3.38;;;18.40;99.90;;;;;;4942425;28;20411;-87
2024/03/20 12:42:53;;;;;;;3.83;3.42;;;18.30;99.90;;;;;;4925305;28;20126;-90
2024/03/20 12:45:19;;;;;;;3.53;2.83;;;18.50;99.90;;;;;;4916843;29;20051;-90
2024/03/20 12:47:45;;;;;;;4.05;3.63;;;18.50;99.90;;;;;;4916771;29;20110;-86
2024/03/20 12:50:11;;;;;;;3.50;2.30;;;18.60;99.90;;;;;;4907320;29;20063;-89